Time;durP1;ratioP1;P1;durP2;ratioP2;P2;SDS_P1;SDS_P2;PMS_P1;PMS_P2;Temp;Humidity;BMP_temperature;BMP_pressure;BME280_temperature;BME280_humidity;BME280_pressure;Samples;Min_cycle;Max_cycle;Signal;HPM_P1;HPM_P2
2020/12/16 00:00:54;;;;;;;5.93;4.03;;;;;;;8.80;52.23;101189.03;5067220;28;20060;-69
2020/12/16 00:03:26;;;;;;;6.03;3.97;;;;;;;8.75;52.30;101190.34;5070541;28;20134;-69
2020/12/16 00:05:57;;;;;;;6.68;4.30;;;;;;;8.74;52.06;101186.75;5072059;28;20053;-68
2020/12/16 00:08:33;;;;;;;7.10;4.90;;;;;;;8.74;52.06;101192.19;5042783;28;20032;-69
2020/12/16 00:11:03;;;;;;;7.00;4.95;;;;;;;8.71;51.91;101191.56;5068543;28;20057;-69
2020/12/16 00:13:35;;;;;;;7.90;5.18;;;;;;;8.69;52.14;101193.53;5073276;28;20055;-68
2020/12/16 00:16:11;;;;;;;8.10;5.20;;;;;;;8.67;52.14;101190.91;5071154;28;20044;-69
2020/12/16 00:18:45;;;;;;;7.30;5.10;;;;;;;8.66;52.08;101193.75;5073621;28;20092;-69
2020/12/16 00:21:13;;;;;;;8.90;5.00;;;;;;;8.66;52.18;101201.91;5076611;28;20056;-68
2020/12/16 00:23:41;;;;;;;8.35;4.65;;;;;;;8.64;52.32;101200.16;5067634;28;20518;-69
2020/12/16 00:26:14;;;;;;;6.57;4.25;;;;;;;8.61;52.42;101213.19;5075926;28;20044;-68
2020/12/16 00:28:44;;;;;;;5.47;4.15;;;;;;;8.62;52.37;101209.47;5055187;28;20040;-68
2020/12/16 00:31:16;;;;;;;6.55;4.00;;;;;;;8.64;52.27;101207.50;5054735;28;20090;-69
2020/12/16 00:33:46;;;;;;;5.47;3.73;;;;;;;8.59;52.34;101196.03;5069936;28;20087;-69
2020/12/16 00:36:22;;;;;;;6.55;3.85;;;;;;;8.59;52.45;101205.09;5068302;28;20044;-68
2020/12/16 00:38:51;;;;;;;5.32;3.75;;;;;;;8.60;52.54;101203.25;5092357;28;20135;-69
2020/12/16 00:41:29;;;;;;;5.75;3.88;;;;;;;8.60;52.37;101205.97;5091718;28;20040;-68
2020/12/16 00:43:58;;;;;;;6.65;3.30;;;;;;;8.57;52.58;101211.63;5091103;28;20502;-69
2020/12/16 00:46:32;;;;;;;6.05;3.72;;;;;;;8.59;52.80;101210.56;5091058;28;20098;-68
2020/12/16 00:49:03;;;;;;;6.10;3.47;;;;;;;8.57;52.27;101212.50;5073917;28;20039;-68
2020/12/16 00:51:31;;;;;;;6.10;3.92;;;;;;;8.59;52.70;101209.69;5090948;28;20392;-68
2020/12/16 00:54:07;;;;;;;6.95;3.92;;;;;;;8.59;52.68;101205.09;5083587;28;20535;-68
2020/12/16 00:56:35;;;;;;;5.45;3.58;;;;;;;8.59;52.71;101207.84;5079818;28;20105;-68
2020/12/16 00:59:02;;;;;;;7.20;4.30;;;;;;;8.60;53.01;101216.88;5090966;28;20028;-69
2020/12/16 01:01:32;;;;;;;5.63;3.92;;;;;;;8.63;52.62;101213.94;5092718;28;20040;-69
2020/12/16 01:04:07;;;;;;;6.20;3.80;;;;;;;8.62;52.79;101218.53;5075966;28;20036;-68
2020/12/16 01:06:38;;;;;;;5.72;3.58;;;;;;;8.64;52.96;101218.41;5069701;28;20036;-68
2020/12/16 01:09:06;;;;;;;5.45;3.83;;;;;;;8.65;53.05;101228.31;5056464;28;20404;-69
2020/12/16 01:11:38;;;;;;;6.85;3.67;;;;;;;8.67;53.11;101229.09;5072685;28;20050;-68
2020/12/16 01:14:09;;;;;;;6.03;3.45;;;;;;;8.67;53.00;101230.94;5086711;28;20048;-68
2020/12/16 01:16:46;;;;;;;5.05;3.25;;;;;;;8.69;52.93;101239.91;5056694;28;20495;-68
2020/12/16 01:19:26;;;;;;;5.32;3.78;;;;;;;8.65;53.14;101231.03;5075048;28;20032;-68
2020/12/16 01:21:59;;;;;;;5.40;3.67;;;;;;;8.71;53.29;101233.34;5070435;28;20040;-69
2020/12/16 01:24:27;;;;;;;5.60;3.55;;;;;;;8.71;53.00;101227.91;5087537;28;20032;-68
2020/12/16 01:26:58;;;;;;;3.95;3.17;;;;;;;8.72;52.97;101235.09;5072933;28;20098;-69
2020/12/16 01:29:30;;;;;;;4.85;3.55;;;;;;;8.71;53.13;101230.63;5083245;28;20024;-69
2020/12/16 01:32:06;;;;;;;5.07;3.50;;;;;;;8.74;53.11;101232.22;5088847;28;20506;-68
2020/12/16 01:34:57;;;;;;;4.78;3.25;;;;;;;8.74;53.22;101241.28;5075799;28;20175;-69
2020/12/16 01:37:24;;;;;;;6.28;3.70;;;;;;;8.76;53.13;101238.47;5106729;28;20043;-68
2020/12/16 01:39:52;;;;;;;5.60;3.75;;;;;;;8.78;53.11;101239.22;5072760;28;20503;-68
2020/12/16 01:42:25;;;;;;;5.72;4.00;;;;;;;8.77;53.19;101240.22;5090424;28;20075;-68
2020/12/16 01:45:07;;;;;;;5.13;3.70;;;;;;;8.81;53.25;101245.31;5057439;28;20166;-68
2020/12/16 01:47:42;;;;;;;5.57;3.55;;;;;;;8.82;53.25;101240.72;5063238;28;20100;-68
2020/12/16 01:50:26;;;;;;;5.32;3.42;;;;;;;8.82;53.29;101233.41;5072124;28;20052;-68
2020/12/16 01:52:57;;;;;;;5.28;3.75;;;;;;;8.81;53.26;101242.59;5078603;28;20118;-69
2020/12/16 01:55:39;;;;;;;;;;;;;;;8.57;53.96;101247.97;5109781;28;20644;-69
2020/12/16 01:58:19;;;;;;;5.53;3.70;;;;;;;8.81;53.32;101249.91;5074542;28;19950;-68
2020/12/16 02:00:51;;;;;;;6.13;3.53;;;;;;;8.84;53.15;101255.13;5073215;28;20040;-69
2020/12/16 02:03:22;;;;;;;5.75;3.42;;;;;;;8.87;53.20;101247.63;5062646;28;20048;-68
2020/12/16 02:06:08;;;;;;;6.30;3.55;;;;;;;8.87;53.48;101242.16;5074421;28;20040;-69
2020/12/16 02:08:42;;;;;;;4.97;3.25;;;;;;;8.87;53.41;101241.28;5067234;28;20036;-68
2020/12/16 02:11:14;;;;;;;5.63;3.50;;;;;;;8.87;53.32;101252.19;5072316;28;20495;-69
2020/12/16 02:13:47;;;;;;;;;;;;;;;8.63;53.86;101258.44;5074410;28;20787;-69
2020/12/16 02:16:16;;;;;;;4.63;3.00;;;;;;;8.84;53.21;101247.81;5068959;28;20118;-68
2020/12/16 02:18:47;;;;;;;5.57;3.85;;;;;;;8.91;53.26;101253.69;5072961;28;20032;-69
2020/12/16 02:21:21;;;;;;;5.47;3.80;;;;;;;8.90;53.26;101252.81;5072186;28;20127;-69
2020/12/16 02:24:02;;;;;;;4.72;3.17;;;;;;;8.90;53.41;101252.81;5062655;28;20424;-69
2020/12/16 02:26:39;;;;;;;6.25;4.10;;;;;;;8.90;53.38;101246.50;5077363;28;20039;-69
2020/12/16 02:29:14;;;;;;;4.82;3.17;;;;;;;8.91;53.14;101245.50;5089515;28;20036;-69
2020/12/16 02:31:48;;;;;;;6.20;3.22;;;;;;;8.90;53.36;101244.66;5072657;28;20046;-69
2020/12/16 02:34:16;;;;;;;6.03;3.30;;;;;;;8.92;53.13;101259.06;5090851;28;20040;-69
2020/12/16 02:36:51;;;;;;;5.25;3.33;;;;;;;8.92;53.50;101250.88;5073487;28;20484;-69
2020/12/16 02:39:39;;;;;;;6.47;3.67;;;;;;;8.92;53.25;101247.25;5067588;28;20426;-69
2020/12/16 02:42:23;;;;;;;6.15;3.65;;;;;;;8.93;53.40;101247.16;5100698;28;20034;-69
2020/12/16 02:44:51;;;;;;;5.30;3.58;;;;;;;8.92;53.16;101244.53;5090953;28;20043;-69
2020/12/16 02:47:47;;;;;;;4.68;3.17;;;;;;;8.90;53.04;101241.91;5074227;28;20032;-69
2020/12/16 02:50:21;;;;;;;5.25;3.38;;;;;;;8.90;52.96;101241.91;5051107;28;20044;-68
2020/12/16 02:52:57;;;;;;;6.53;3.67;;;;;;;8.90;52.90;101249.22;5090745;28;20123;-69
2020/12/16 02:55:27;;;;;;;5.57;3.53;;;;;;;8.89;53.13;101252.94;5078873;28;20483;-69
2020/12/16 02:58:03;;;;;;;4.80;3.22;;;;;;;8.89;52.92;101250.22;5086244;28;20403;-69
2020/12/16 03:00:32;;;;;;;5.38;3.38;;;;;;;8.87;52.92;101246.75;5070444;28;20048;-69
2020/12/16 03:03:28;;;;;;;4.80;3.28;;;;;;;8.85;52.94;101240.53;5089449;28;20055;-69
2020/12/16 03:06:28;;;;;;;4.68;3.15;;;;;;;8.83;52.93;101240.63;5090382;28;20040;-68
2020/12/16 03:09:10;;;;;;;6.57;4.25;;;;;;;8.81;53.02;101248.03;5071505;28;20040;-69
2020/12/16 03:11:41;;;;;;;4.75;3.58;;;;;;;8.84;53.02;101249.69;5071144;28;20047;-68
2020/12/16 03:14:17;;;;;;;4.78;3.25;;;;;;;8.84;52.94;101252.41;5074076;28;20384;-68
2020/12/16 03:16:46;;;;;;;5.57;3.60;;;;;;;8.82;52.86;101243.47;5071980;28;20043;-68
2020/12/16 03:19:24;;;;;;;6.28;3.75;;;;;;;8.80;52.63;101238.16;5071002;28;20127;-68
2020/12/16 03:21:53;;;;;;;5.82;3.92;;;;;;;8.80;52.69;101238.16;5055568;28;20044;-68
2020/12/16 03:24:35;;;;;;;4.95;3.38;;;;;;;8.75;53.08;101232.13;5110251;28;20062;-68
2020/12/16 03:27:32;;;;;;;5.85;3.47;;;;;;;8.74;52.71;101241.28;5079342;28;20059;-69
2020/12/16 03:30:18;;;;;;;4.97;3.50;;;;;;;8.74;52.66;101241.28;5071111;28;20044;-68
2020/12/16 03:33:18;;;;;;;5.90;3.65;;;;;;;8.70;52.82;101237.06;5069426;28;20056;-69
2020/12/16 03:36:12;;;;;;;6.22;3.67;;;;;;;8.70;52.75;101239.78;5058472;28;20141;-69
2020/12/16 03:38:48;;;;;;;5.25;3.65;;;;;;;8.68;52.82;101240.88;5079584;28;20544;-68
2020/12/16 03:41:17;;;;;;;5.97;3.70;;;;;;;8.67;52.73;101234.53;5070633;28;20078;-68
2020/12/16 03:43:53;;;;;;;6.30;3.75;;;;;;;8.64;52.74;101229.34;5072040;28;20044;-68
2020/12/16 03:46:23;;;;;;;5.10;3.47;;;;;;;8.63;52.59;101217.53;5071948;28;20127;-68
2020/12/16 03:48:50;;;;;;;5.25;3.35;;;;;;;8.61;52.66;101215.91;5072272;28;20040;-68
2020/12/16 03:51:21;;;;;;;5.75;3.45;;;;;;;8.59;52.67;101217.88;5072239;28;20063;-68
2020/12/16 03:53:56;;;;;;;4.57;3.22;;;;;;;8.57;52.72;101222.53;5077690;28;20043;-68
2020/12/16 03:56:38;;;;;;;5.20;3.60;;;;;;;8.54;52.59;101215.47;5070293;28;20040;-68
2020/12/16 03:59:34;;;;;;;4.50;3.30;;;;;;;8.51;52.67;101201.19;5067099;28;20051;-68
2020/12/16 04:02:32;;;;;;;4.80;3.42;;;;;;;8.51;52.49;101201.19;5070672;28;20052;-68
2020/12/16 04:05:11;;;;;;;5.43;3.05;;;;;;;8.50;52.61;101196.72;5071736;28;20098;-68
2020/12/16 04:07:44;;;;;;;;;;;;;;;8.24;53.35;101193.97;5106344;28;20036;-68
2020/12/16 04:10:27;;;;;;;5.45;3.47;;;;;;;8.42;52.84;101207.25;5069210;28;20013;-68
2020/12/16 04:12:58;;;;;;;5.70;3.47;;;;;;;8.45;52.89;101218.88;5073441;28;20047;-68
2020/12/16 04:15:27;;;;;;;5.22;3.40;;;;;;;8.46;52.98;101223.34;5068597;28;20040;-68
2020/12/16 04:17:56;;;;;;;4.47;3.20;;;;;;;8.47;52.77;101229.66;5067232;28;20032;-68
2020/12/16 04:20:24;;;;;;;5.15;3.15;;;;;;;8.45;52.72;101232.50;5071728;28;20044;-68
2020/12/16 04:23:12;;;;;;;4.68;3.05;;;;;;;8.44;52.95;101232.59;5050651;28;20048;-68
2020/12/16 04:25:53;;;;;;;4.95;3.28;;;;;;;8.45;52.84;101235.22;5074121;28;20054;-68
2020/12/16 04:28:21;;;;;;;4.90;3.40;;;;;;;8.45;52.71;101231.63;5076210;28;20059;-68
2020/12/16 04:30:49;;;;;;;7.13;3.97;;;;;;;8.45;52.71;101227.06;5074884;28;20043;-68
2020/12/16 04:33:24;;;;;;;5.53;3.25;;;;;;;8.44;52.56;101217.13;5059414;28;20135;-68
2020/12/16 04:35:52;;;;;;;5.47;3.03;;;;;;;8.43;52.53;101217.19;5109457;28;20036;-68
2020/12/16 04:38:30;;;;;;;5.53;3.53;;;;;;;8.42;52.76;101224.50;5069846;28;20036;-68
2020/12/16 04:41:00;;;;;;;5.25;3.42;;;;;;;8.43;52.80;101222.66;5073737;28;20079;-68
2020/12/16 04:43:33;;;;;;;4.57;3.17;;;;;;;8.43;52.79;101225.38;5109035;28;20106;-68
2020/12/16 04:46:00;;;;;;;5.97;3.58;;;;;;;8.41;52.78;101225.47;5072378;28;20087;-68
2020/12/16 04:48:35;;;;;;;5.35;3.30;;;;;;;8.41;52.86;101219.16;5074368;28;20086;-68
2020/12/16 04:51:19;;;;;;;5.30;3.00;;;;;;;8.41;52.57;101233.66;5073810;28;20036;-68
2020/12/16 04:53:46;;;;;;;4.53;2.88;;;;;;;8.39;52.54;101227.47;5071249;28;20040;-68
2020/12/16 04:56:25;;;;;;;4.38;3.22;;;;;;;8.38;52.43;101223.00;5112653;27;20036;-68
2020/12/16 04:59:16;;;;;;;5.30;3.40;;;;;;;8.37;52.72;101220.38;5075667;28;20043;-67
2020/12/16 05:02:04;;;;;;;4.60;3.20;;;;;;;8.36;52.63;101219.50;5064630;28;20032;-68
2020/12/16 05:04:53;;;;;;;5.00;3.42;;;;;;;8.36;52.58;101226.78;5087944;28;20044;-68
2020/12/16 05:07:30;;;;;;;4.70;3.13;;;;;;;8.34;52.29;101220.56;5076248;28;20044;-68
2020/12/16 05:09:58;;;;;;;5.80;3.33;;;;;;;8.33;52.38;101227.88;5093029;28;20047;-68
2020/12/16 05:12:25;;;;;;;4.90;3.20;;;;;;;8.33;52.40;101232.44;5085168;28;20395;-68
2020/12/16 05:14:52;;;;;;;5.07;3.20;;;;;;;8.32;52.39;101226.13;5095332;28;20044;-68
2020/12/16 05:17:26;;;;;;;5.70;3.50;;;;;;;8.30;52.48;101228.13;5101842;28;20059;-68
2020/12/16 05:20:14;;;;;;;6.68;3.50;;;;;;;8.29;52.36;101236.41;5092425;28;20418;-68
2020/12/16 05:22:42;;;;;;;5.55;3.35;;;;;;;8.28;52.22;101237.38;5092368;28;20043;-68
2020/12/16 05:25:11;;;;;;;5.22;3.30;;;;;;;8.26;52.13;101237.47;5074736;28;20395;-68
2020/12/16 05:27:39;;;;;;;6.38;3.70;;;;;;;8.25;52.32;101239.31;5091837;28;20098;-68
2020/12/16 05:30:09;;;;;;;4.70;3.28;;;;;;;8.22;52.35;101236.84;5090402;28;20060;-68
2020/12/16 05:32:37;;;;;;;5.50;3.22;;;;;;;8.24;52.27;101228.53;5100486;28;20040;-68
2020/12/16 05:35:22;;;;;;;5.15;3.28;;;;;;;8.23;52.25;101232.22;5092250;28;20664;-68
2020/12/16 05:37:50;;;;;;;5.43;3.17;;;;;;;8.18;52.43;101235.28;5090294;28;20120;-68
2020/12/16 05:40:21;;;;;;;5.43;3.47;;;;;;;8.19;52.16;101233.44;5091038;28;20557;-68
2020/12/16 05:42:50;;;;;;;8.43;4.78;;;;;;;8.17;52.23;101235.38;5087079;28;20455;-68
2020/12/16 05:45:20;;;;;;;12.48;7.78;;;;;;;8.16;52.10;101236.38;5091606;28;20035;-69
2020/12/16 05:47:59;;;;;;;9.43;6.53;;;;;;;8.15;51.76;101232.78;5092764;28;20153;-68
2020/12/16 05:50:36;;;;;;;7.93;5.05;;;;;;;8.12;51.84;101237.56;5092279;28;20475;-68
2020/12/16 05:53:17;;;;;;;7.30;4.55;;;;;;;8.10;51.97;101239.53;5091817;28;20040;-68
2020/12/16 05:55:55;;;;;;;5.73;4.07;;;;;;;8.04;52.18;101240.84;5085248;28;20051;-68
2020/12/16 05:58:25;;;;;;;6.78;4.43;;;;;;;8.06;52.23;101247.06;5090678;28;20032;-68
2020/12/16 06:01:02;;;;;;;7.10;3.78;;;;;;;8.04;52.24;101235.41;5092102;28;20039;-67
2020/12/16 06:03:32;;;;;;;7.25;4.38;;;;;;;8.04;52.17;101229.06;5072302;28;20045;-68
2020/12/16 06:06:05;;;;;;;7.88;4.32;;;;;;;8.04;52.09;101227.22;5092147;28;20043;-68
2020/12/16 06:08:35;;;;;;;6.63;4.03;;;;;;;8.02;51.98;101222.84;5091295;28;20455;-68
2020/12/16 06:11:07;;;;;;;8.60;4.47;;;;;;;7.99;52.04;101232.09;5092858;28;20055;-68
2020/12/16 06:13:36;;;;;;;7.28;4.53;;;;;;;8.00;51.89;101243.88;5055553;28;20036;-68
2020/12/16 06:16:19;;;;;;;7.95;4.65;;;;;;;7.97;51.85;101252.28;5091551;28;20122;-68
2020/12/16 06:19:01;;;;;;;8.40;4.32;;;;;;;7.98;52.02;101251.31;5058563;28;20106;-70
2020/12/16 06:21:33;;;;;;;6.68;4.15;;;;;;;7.95;51.95;101248.78;5092394;28;20067;-68
2020/12/16 06:24:27;;;;;;;6.43;4.03;;;;;;;7.94;52.01;101250.63;5068353;28;20051;-68
2020/12/16 06:27:04;;;;;;;7.25;4.10;;;;;;;7.95;51.86;101260.56;5092958;28;20058;-68
2020/12/16 06:29:43;;;;;;;7.80;4.35;;;;;;;7.91;51.90;101260.84;5074616;28;20553;-68
2020/12/16 06:32:19;;;;;;;6.40;3.93;;;;;;;7.90;51.93;101265.41;5066666;28;20044;-68
2020/12/16 06:34:47;;;;;;;6.70;4.53;;;;;;;7.89;52.00;101269.16;5091532;28;20058;-69
2020/12/16 06:37:19;;;;;;;7.30;4.32;;;;;;;7.88;51.81;101275.56;5092454;28;20494;-69
2020/12/16 06:39:47;;;;;;;8.27;4.43;;;;;;;7.87;51.88;101282.00;5092190;28;20129;-68
2020/12/16 06:42:32;;;;;;;7.05;4.38;;;;;;;7.88;51.67;101272.84;5093102;28;20043;-68
2020/12/16 06:45:10;;;;;;;5.65;3.92;;;;;;;7.87;51.86;101276.53;5078485;28;20035;-68
2020/12/16 06:47:37;;;;;;;7.85;4.25;;;;;;;7.83;52.03;101277.72;5088575;28;20043;-68
2020/12/16 06:50:19;;;;;;;6.15;3.80;;;;;;;7.84;51.81;101283.06;5091799;28;20368;-68
2020/12/16 06:52:49;;;;;;;6.70;4.03;;;;;;;7.80;51.87;101284.28;5053022;28;20094;-68
2020/12/16 06:55:18;;;;;;;8.18;4.50;;;;;;;7.80;51.90;101280.66;5089801;28;20118;-69
2020/12/16 06:57:47;;;;;;;8.70;5.00;;;;;;;7.81;51.78;101280.56;5092172;28;20032;-68
2020/12/16 07:00:20;;;;;;;7.20;4.47;;;;;;;7.78;52.00;101286.22;5091705;28;20487;-69
2020/12/16 07:02:52;;;;;;;7.68;4.45;;;;;;;7.76;51.80;101288.16;5092285;28;20106;-68
2020/12/16 07:05:40;;;;;;;8.27;5.10;;;;;;;7.78;51.68;101290.78;5091872;28;20036;-68
2020/12/16 07:08:08;;;;;;;8.15;5.15;;;;;;;7.75;51.95;101296.44;5074340;28;20059;-68
2020/12/16 07:10:50;;;;;;;7.25;4.63;;;;;;;7.75;52.09;101294.59;5073563;28;20478;-68
2020/12/16 07:13:28;;;;;;;8.15;4.85;;;;;;;7.72;52.16;101297.53;5068964;28;20134;-68
2020/12/16 07:15:59;;;;;;;8.27;4.75;;;;;;;7.72;52.09;101294.81;5073320;28;20051;-69
2020/12/16 07:18:39;;;;;;;9.80;5.78;;;;;;;7.71;52.22;101298.50;5090556;28;20407;-69
2020/12/16 07:21:24;;;;;;;8.23;4.93;;;;;;;7.71;52.07;101289.47;5092435;28;20048;-69
2020/12/16 07:24:07;;;;;;;9.48;5.68;;;;;;;7.69;52.12;101283.25;5077767;28;20044;-69
2020/12/16 07:26:48;;;;;;;8.70;5.18;;;;;;;7.66;52.21;101278.00;5066642;28;20040;-69
2020/12/16 07:29:21;;;;;;;8.35;5.30;;;;;;;7.67;52.08;101280.63;5089918;28;20049;-68
2020/12/16 07:32:04;;;;;;;7.70;4.82;;;;;;;7.69;52.26;101285.97;5073803;28;20043;-69
2020/12/16 07:34:46;;;;;;;8.45;4.50;;;;;;;7.68;52.52;101278.75;5071440;28;20063;-69
2020/12/16 07:37:15;;;;;;;7.50;4.90;;;;;;;7.65;52.05;101277.16;5084540;28;20048;-68
2020/12/16 07:39:50;;;;;;;8.88;4.70;;;;;;;7.68;52.46;101289.66;5090763;28;20421;-69
2020/12/16 07:42:26;;;;;;;8.32;4.60;;;;;;;7.66;52.67;101281.59;5073625;28;20131;-68
2020/12/16 07:44:54;;;;;;;;;;;;;;;7.41;52.97;101295.97;5072820;28;20529;-69
2020/12/16 07:47:47;;;;;;;6.82;4.20;;;;;;;7.61;52.67;101296.50;5089559;28;19927;-68
2020/12/16 07:50:15;;;;;;;6.35;4.22;;;;;;;7.62;52.53;101290.94;5071479;28;20135;-69
2020/12/16 07:52:52;;;;;;;6.03;3.70;;;;;;;7.69;53.14;101302.31;5085169;28;20488;-68
2020/12/16 07:55:26;;;;;;;8.50;4.80;;;;;;;7.66;52.60;101294.31;5090132;28;20140;-67
2020/12/16 07:57:54;;;;;;;8.60;4.70;;;;;;;7.68;52.65;101290.53;5058758;28;20047;-68
2020/12/16 08:00:23;;;;;;;7.65;4.57;;;;;;;7.70;52.76;101296.75;5089827;28;20051;-68
2020/12/16 08:02:54;;;;;;;8.18;4.60;;;;;;;7.69;52.84;101296.84;5089015;28;20036;-67
2020/12/16 08:05:26;;;;;;;7.07;4.22;;;;;;;7.72;52.83;101294.81;5089834;28;20036;-68
2020/12/16 08:08:01;;;;;;;9.57;4.93;;;;;;;7.74;52.73;101292.84;5090872;28;20048;-68
2020/12/16 08:10:30;;;;;;;6.97;4.50;;;;;;;7.73;53.00;101288.41;5091935;28;20376;-68
2020/12/16 08:12:57;;;;;;;7.45;4.65;;;;;;;7.75;52.83;101288.25;5092574;28;20135;-68
2020/12/16 08:15:30;;;;;;;;;;;;;;;7.52;53.33;101289.81;5088874;28;20046;-68
2020/12/16 08:17:58;;;;;;;8.43;4.72;;;;;;;7.73;52.97;101295.69;5074380;28;19920;-68
2020/12/16 08:20:29;;;;;;;7.82;4.15;;;;;;;7.78;52.87;101293.50;5094912;28;20047;-68
2020/12/16 08:22:59;;;;;;;7.88;4.70;;;;;;;7.81;52.78;101287.88;5074529;28;20036;-68
2020/12/16 08:25:26;;;;;;;8.35;5.30;;;;;;;7.80;52.92;101286.13;5084347;28;20082;-68
2020/12/16 08:27:58;;;;;;;7.72;5.45;;;;;;;7.82;52.85;101286.88;5073518;28;20041;-68
2020/12/16 08:30:29;;;;;;;7.10;4.32;;;;;;;7.82;53.04;101282.28;5090270;28;20036;-68
2020/12/16 08:33:01;;;;;;;8.02;5.05;;;;;;;7.85;52.93;101287.53;5090658;28;20122;-68
2020/12/16 08:35:32;;;;;;;7.65;4.55;;;;;;;7.86;53.13;101286.56;5092942;28;20048;-68
2020/12/16 08:38:07;;;;;;;7.47;4.68;;;;;;;7.87;52.93;101291.03;5090146;28;20040;-67
2020/12/16 08:40:38;;;;;;;6.85;4.28;;;;;;;7.86;52.97;101285.69;5093660;28;20127;-67
2020/12/16 08:43:17;;;;;;;7.35;4.00;;;;;;;7.91;53.00;101279.91;5091334;28;20043;-68
2020/12/16 08:45:46;;;;;;;9.00;4.22;;;;;;;7.89;53.01;101288.22;5093017;28;20047;-68
2020/12/16 08:48:14;;;;;;;9.10;5.30;;;;;;;7.90;52.97;101281.75;5091056;28;20426;-67
2020/12/16 08:50:48;;;;;;;9.40;5.25;;;;;;;7.91;53.00;101275.34;5090845;28;20045;-67
2020/12/16 08:53:17;;;;;;;8.32;4.93;;;;;;;7.91;52.83;101280.78;5096400;28;20068;-67
2020/12/16 08:55:47;;;;;;;7.18;4.38;;;;;;;7.93;52.98;101286.13;5095419;28;20823;-68
2020/12/16 08:58:21;;;;;;;7.28;4.70;;;;;;;7.92;52.95;101277.09;5069655;28;20449;-67
2020/12/16 09:00:48;;;;;;;7.13;4.30;;;;;;;7.93;52.94;101278.84;5090099;28;20376;-67
2020/12/16 09:03:17;;;;;;;7.53;4.43;;;;;;;7.95;53.12;101276.03;5087405;28;20514;-67
2020/12/16 09:05:49;;;;;;;7.80;4.60;;;;;;;7.95;53.01;101278.75;5090268;28;20043;-67
2020/12/16 09:08:21;;;;;;;8.50;4.88;;;;;;;7.97;52.97;101271.34;5092593;28;20114;-66
2020/12/16 09:10:58;;;;;;;8.38;4.70;;;;;;;8.02;53.26;101278.22;5091682;28;20040;-66
2020/12/16 09:13:31;;;;;;;7.40;4.53;;;;;;;8.03;53.23;101279.09;5074407;28;20036;-67
2020/12/16 09:16:24;;;;;;;6.90;3.88;;;;;;;8.03;53.24;101271.78;5092655;28;20051;-66
2020/12/16 09:19:17;;;;;;;6.95;4.47;;;;;;;8.04;53.34;101272.66;5090385;28;20059;-66
2020/12/16 09:22:04;;;;;;;7.72;4.45;;;;;;;8.05;53.31;101279.88;5091072;28;20051;-66
2020/12/16 09:24:33;;;;;;;6.47;3.80;;;;;;;8.09;53.26;101278.66;5093948;28;20504;-67
2020/12/16 09:27:06;;;;;;;6.13;3.78;;;;;;;8.13;53.50;101282.94;5094360;28;20490;-67
2020/12/16 09:29:43;;;;;;;7.15;4.28;;;;;;;8.16;53.37;101291.75;5072338;28;20030;-67
2020/12/16 09:32:13;;;;;;;7.45;4.60;;;;;;;8.16;53.31;101286.28;5087444;28;20067;-68
2020/12/16 09:34:49;;;;;;;6.32;4.18;;;;;;;8.19;53.30;101285.22;5073528;28;20040;-67
2020/12/16 09:37:23;;;;;;;7.22;4.65;;;;;;;8.22;53.27;101290.47;5092182;28;20044;-67
2020/12/16 09:40:01;;;;;;;6.35;4.07;;;;;;;8.22;53.62;101283.16;5087423;28;20044;-68
2020/12/16 09:42:29;;;;;;;5.80;3.78;;;;;;;8.28;53.54;101290.03;5089597;28;21231;-68
2020/12/16 09:45:09;;;;;;;5.88;3.63;;;;;;;8.33;53.67;101290.56;5096129;28;20496;-68
2020/12/16 09:47:42;;;;;;;6.88;4.10;;;;;;;8.37;53.73;101288.50;5085279;28;20089;-67
2020/12/16 09:50:10;;;;;;;6.35;3.83;;;;;;;8.36;53.74;101292.22;5074531;28;20044;-67
2020/12/16 09:52:40;;;;;;;5.97;3.90;;;;;;;8.40;53.63;101280.97;5093343;28;20040;-67
2020/12/16 09:55:16;;;;;;;6.25;4.20;;;;;;;8.46;53.83;101290.63;5094365;28;20092;-67
2020/12/16 09:57:44;;;;;;;5.25;3.00;;;;;;;8.46;53.75;101288.78;5113778;28;20670;-67
2020/12/16 10:00:12;;;;;;;5.78;3.97;;;;;;;8.51;53.77;101293.88;5089778;28;20040;-67
2020/12/16 10:02:43;;;;;;;5.93;3.40;;;;;;;8.52;53.89;101292.91;5092926;28;20379;-67
2020/12/16 10:05:12;;;;;;;5.53;3.45;;;;;;;8.55;53.93;101285.41;5071072;28;20040;-67
2020/12/16 10:07:41;;;;;;;6.55;3.63;;;;;;;8.59;54.16;101286.91;5090595;28;20043;-67
2020/12/16 10:10:11;;;;;;;7.03;3.97;;;;;;;8.62;54.01;101270.34;5089810;28;20407;-67
2020/12/16 10:12:45;;;;;;;8.00;4.47;;;;;;;8.67;54.25;101271.84;5051536;28;20044;-67
2020/12/16 10:15:16;;;;;;;6.22;3.90;;;;;;;8.72;54.21;101269.69;5091041;28;20066;-68
2020/12/16 10:17:49;;;;;;;6.10;3.95;;;;;;;8.74;54.48;101268.56;5097711;28;20065;-67
2020/12/16 10:20:17;;;;;;;6.43;3.50;;;;;;;8.80;54.73;101261.81;5070934;28;20098;-67
2020/12/16 10:22:45;;;;;;;6.35;4.00;;;;;;;8.84;54.43;101263.31;5087438;28;20064;-67
2020/12/16 10:25:15;;;;;;;6.07;3.90;;;;;;;8.89;54.95;101263.84;5091834;28;20068;-67
2020/12/16 10:27:45;;;;;;;8.52;4.30;;;;;;;8.95;54.88;101266.16;5054866;28;20165;-66
2020/12/16 10:30:25;;;;;;;6.47;3.90;;;;;;;9.01;54.97;101255.66;5090984;28;20040;-67
2020/12/16 10:32:56;;;;;;;6.43;4.10;;;;;;;9.07;54.90;101261.63;5091576;28;20059;-67
2020/12/16 10:35:25;;;;;;;6.25;3.97;;;;;;;9.12;54.59;101262.19;5090989;28;20095;-67
2020/12/16 10:37:56;;;;;;;5.80;4.10;;;;;;;9.17;54.94;101251.78;5085704;28;20494;-66
2020/12/16 10:40:31;;;;;;;;;;;;;;;8.96;55.57;101244.22;5091081;28;20036;-67
2020/12/16 10:43:00;;;;;;;5.38;3.33;;;;;;;9.22;54.67;101239.53;5086952;28;19927;-66
2020/12/16 10:45:41;;;;;;;5.38;3.40;;;;;;;9.31;54.77;101227.06;5068199;28;20479;-66
2020/12/16 10:48:29;;;;;;;5.63;3.35;;;;;;;9.38;55.21;101214.72;5090701;28;20044;-65
2020/12/16 10:51:01;;;;;;;6.27;3.80;;;;;;;9.46;55.34;101212.25;5072919;28;20040;-66
2020/12/16 10:53:48;;;;;;;6.10;3.83;;;;;;;9.55;55.49;101213.38;5083467;28;20047;-66
2020/12/16 10:56:15;;;;;;;6.05;4.03;;;;;;;9.66;55.40;101211.59;5086217;28;20511;-66
2020/12/16 10:58:51;;;;;;;6.05;3.85;;;;;;;9.77;55.18;101208.06;5079960;28;20139;-66
2020/12/16 11:01:19;;;;;;;5.43;3.90;;;;;;;9.86;55.17;101211.97;5088556;28;20078;-66
2020/12/16 11:03:47;;;;;;;6.88;3.90;;;;;;;9.95;55.08;101206.66;5088752;28;20458;-67
2020/12/16 11:06:16;;;;;;;7.03;4.45;;;;;;;10.02;54.88;101210.63;5089127;28;20059;-66
2020/12/16 11:09:04;;;;;;;6.05;3.95;;;;;;;10.12;54.87;101202.59;5087194;28;20360;-66
2020/12/16 11:11:53;;;;;;;4.38;3.08;;;;;;;10.20;54.85;101194.66;5087981;28;20380;-66
2020/12/16 11:14:26;;;;;;;5.78;3.90;;;;;;;10.27;54.87;101203.22;5087060;28;20032;-67
2020/12/16 11:17:11;;;;;;;6.85;3.85;;;;;;;10.35;54.91;101198.03;5065124;28;20050;-67
2020/12/16 11:19:59;;;;;;;6.55;3.75;;;;;;;10.44;54.47;101200.03;5083125;28;20062;-67
2020/12/16 11:22:37;;;;;;;5.75;3.60;;;;;;;10.50;54.43;101200.38;5088125;28;20055;-67
2020/12/16 11:25:05;;;;;;;5.60;3.83;;;;;;;10.59;54.43;101197.91;5099683;28;20063;-67
2020/12/16 11:27:37;;;;;;;5.90;3.92;;;;;;;10.65;54.36;101189.19;5073056;28;20114;-67
2020/12/16 11:30:09;;;;;;;5.57;3.15;;;;;;;10.72;53.96;101185.81;5104811;28;20036;-67
2020/12/16 11:32:39;;;;;;;5.28;3.75;;;;;;;10.77;54.12;101185.47;5071236;28;20044;-68
2020/12/16 11:35:26;;;;;;;5.40;3.42;;;;;;;10.82;54.12;101183.22;5094361;28;20048;-67
2020/12/16 11:37:54;;;;;;;4.90;3.35;;;;;;;10.90;54.24;101195.28;5093171;28;20058;-68
2020/12/16 11:40:40;;;;;;;6.88;3.90;;;;;;;10.97;54.17;101187.44;5060030;28;20487;-67
2020/12/16 11:43:27;;;;;;;5.78;3.60;;;;;;;11.02;53.71;101192.56;5092761;28;20776;-68
2020/12/16 11:46:16;;;;;;;7.18;3.85;;;;;;;11.10;53.92;101190.91;5090414;28;20067;-68
2020/12/16 11:48:43;;;;;;;5.32;3.25;;;;;;;11.17;53.89;101180.31;5098018;28;20059;-67
2020/12/16 11:51:12;;;;;;;6.65;3.72;;;;;;;11.24;53.91;101185.16;5097276;28;20036;-68
2020/12/16 11:53:44;;;;;;;6.20;4.15;;;;;;;11.27;53.84;101203.19;5096785;28;20478;-67
2020/12/16 11:56:11;;;;;;;6.65;3.88;;;;;;;11.35;53.33;101203.44;5104637;28;20040;-68
2020/12/16 11:58:47;;;;;;;5.85;3.63;;;;;;;11.40;53.61;101194.81;5090394;28;20036;-68
2020/12/16 12:01:17;;;;;;;5.85;3.47;;;;;;;11.46;53.29;101188.78;5091624;28;20047;-68
2020/12/16 12:03:45;;;;;;;5.47;3.78;;;;;;;11.50;53.26;101184.81;5096524;28;20040;-68
2020/12/16 12:06:14;;;;;;;5.18;3.00;;;;;;;11.54;53.30;101176.19;5110148;28;20032;-66
2020/12/16 12:08:44;;;;;;;5.38;3.50;;;;;;;11.60;53.13;101177.56;5093961;28;20089;-67